Time;durP1;ratioP1;P1;durP2;ratioP2;P2;SDS_P1;SDS_P2;PMS_P1;PMS_P2;Temp;Humidity;BMP_temperature;BMP_pressure;BME280_temperature;BME280_humidity;BME280_pressure;Samples;Min_cycle;Max_cycle;Signal;HPM_P1;HPM_P2
2023/08/01 00:00:10;;;;;;;4.97;4.10;;;;;;;;;;5017738;28;20172;-79
2023/08/01 00:02:35;;;;;;;5.73;4.47;;;;;;;;;;5017595;28;20287;-79
2023/08/01 00:05:00;;;;;;;3.63;3.33;;;;;;;;;;5018422;28;20239;-79
2023/08/01 00:07:29;;;;;;;5.37;3.97;;;;;;;;;;5018584;28;20205;-79
2023/08/01 00:09:57;;;;;;;5.83;3.50;;;;;;;;;;4998532;28;20305;-79
2023/08/01 00:12:24;;;;;;;4.67;3.93;;;;;;;;;;5027825;28;20248;-79
2023/08/01 00:14:49;;;;;;;6.53;3.77;;;;;;;;;;5019224;28;20207;-78
2023/08/01 00:17:14;;;;;;;4.23;3.73;;;;;;;;;;5024591;28;20183;-79
2023/08/01 00:19:39;;;;;;;4.73;3.97;;;;;;;;;;5015587;28;20176;-79
2023/08/01 00:22:04;;;;;;;5.53;3.50;;;;;;;;;;5019202;28;20206;-79
2023/08/01 00:24:30;;;;;;;5.17;3.63;;;;;;;;;;5015455;28;20271;-79
2023/08/01 00:26:55;;;;;;;4.27;3.40;;;;;;;;;;5018266;28;20191;-79
2023/08/01 00:29:21;;;;;;;5.57;3.90;;;;;;;;;;5024695;28;20180;-79
2023/08/01 00:31:46;;;;;;;4.43;3.63;;;;;;;;;;5014729;28;20189;-79
2023/08/01 00:34:11;;;;;;;4.47;3.60;;;;;;;;;;5019093;28;20202;-79
2023/08/01 00:36:37;;;;;;;4.57;3.97;;;;;;;;;;5013392;28;20189;-79
2023/08/01 00:39:02;;;;;;;4.10;3.70;;;;;;;;;;5013693;28;20173;-79
2023/08/01 00:41:27;;;;;;;4.23;3.60;;;;;;;;;;5021126;28;20231;-79
2023/08/01 00:43:52;;;;;;;7.87;4.43;;;;;;;;;;5019247;28;20188;-79
2023/08/01 00:46:17;;;;;;;3.83;3.43;;;;;;;;;;5030312;28;20217;-78
2023/08/01 00:48:43;;;;;;;5.80;3.80;;;;;;;;;;5019290;28;20252;-79
2023/08/01 00:51:09;;;;;;;4.57;3.67;;;;;;;;;;5014901;28;20188;-79
2023/08/01 00:53:35;;;;;;;5.57;4.33;;;;;;;;;;5024166;28;20210;-79
2023/08/01 00:56:00;;;;;;;5.47;4.20;;;;;;;;;;5022623;28;20209;-79
2023/08/01 00:58:25;;;;;;;4.43;3.40;;;;;;;;;;5023858;28;20244;-79
2023/08/01 01:00:50;;;;;;;4.20;3.77;;;;;;;;;;5013170;28;20179;-79
2023/08/01 01:03:16;;;;;;;4.97;3.70;;;;;;;;;;5021023;28;20232;-79
2023/08/01 01:06:02;;;;;;;4.93;3.60;;;;;;;;;;5018503;28;20195;-80
2023/08/01 01:08:27;;;;;;;4.40;3.80;;;;;;;;;;5014721;28;20255;-81
2023/08/01 01:10:52;;;;;;;3.83;3.40;;;;;;;;;;5035561;28;20268;-81
2023/08/01 01:13:18;;;;;;;9.53;4.03;;;;;;;;;;5023188;28;20179;-83
2023/08/01 01:15:43;;;;;;;5.63;3.97;;;;;;;;;;5019029;28;20170;-83
2023/08/01 01:18:08;;;;;;;5.17;3.83;;;;;;;;;;5016204;28;20182;-82
2023/08/01 01:20:35;;;;;;;7.13;3.53;;;;;;;;;;5018692;28;20193;-82
2023/08/01 01:23:00;;;;;;;5.40;3.77;;;;;;;;;;5017143;28;20201;-83
2023/08/01 01:25:26;;;;;;;6.33;4.00;;;;;;;;;;5024043;28;20176;-82
2023/08/01 01:27:52;;;;;;;4.83;4.00;;;;;;;;;;5016362;28;20187;-82
2023/08/01 01:30:18;;;;;;;5.90;3.83;;;;;;;;;;5025914;28;20322;-82
2023/08/01 01:32:43;;;;;;;5.57;3.50;;;;;;;;;;5017349;28;20267;-82
2023/08/01 01:35:09;;;;;;;5.70;4.37;;;;;;;;;;5014788;28;20195;-81
2023/08/01 01:37:34;;;;;;;5.40;3.70;;;;;;;;;;5023151;28;20194;-81
2023/08/01 01:39:59;;;;;;;5.87;4.40;;;;;;;;;;5023466;28;20275;-81
2023/08/01 01:42:25;;;;;;;5.07;4.03;;;;;;;;;;5023208;28;20182;-81
2023/08/01 01:44:50;;;;;;;4.27;3.30;;;;;;;;;;5018995;28;20182;-81
2023/08/01 01:47:15;;;;;;;6.80;4.43;;;;;;;;;;5016465;28;20180;-81
2023/08/01 01:49:40;;;;;;;4.57;4.13;;;;;;;;;;5022978;28;20233;-81
2023/08/01 01:52:06;;;;;;;6.50;3.77;;;;;;;;;;5014250;28;20185;-81
2023/08/01 01:54:31;;;;;;;6.33;4.10;;;;;;;;;;5017236;28;20300;-82
2023/08/01 01:56:56;;;;;;;4.67;3.77;;;;;;;;;;5015625;28;20244;-81
2023/08/01 01:59:21;;;;;;;4.47;3.73;;;;;;;;;;5016873;28;20161;-81
2023/08/01 02:01:46;;;;;;;5.07;4.17;;;;;;;;;;5013868;28;20178;-81
2023/08/01 02:04:12;;;;;;;3.63;3.33;;;;;;;;;;5012145;28;20255;-81
2023/08/01 02:06:37;;;;;;;4.90;3.90;;;;;;;;;;5020607;28;20220;-81
2023/08/01 02:09:03;;;;;;;4.57;3.67;;;;;;;;;;5012582;28;20186;-81
2023/08/01 02:11:28;;;;;;;4.60;3.57;;;;;;;;;;5020037;28;20243;-82
2023/08/01 02:13:54;;;;;;;4.73;4.23;;;;;;;;;;5018993;28;20197;-82
2023/08/01 02:16:19;;;;;;;5.53;4.50;;;;;;;;;;5014472;28;20169;-82
2023/08/01 02:18:44;;;;;;;7.60;4.27;;;;;;;;;;5011546;28;20182;-82
2023/08/01 02:21:09;;;;;;;4.70;3.60;;;;;;;;;;5015073;28;20206;-82
2023/08/01 02:23:37;;;;;;;5.83;3.80;;;;;;;;;;5013672;28;20193;-82
2023/08/01 02:26:02;;;;;;;4.67;3.97;;;;;;;;;;5013912;28;20181;-81
2023/08/01 02:28:27;;;;;;;5.77;4.13;;;;;;;;;;5016915;28;20191;-81
2023/08/01 02:30:52;;;;;;;4.80;3.67;;;;;;;;;;5012920;28;20180;-81
2023/08/01 02:33:18;;;;;;;5.10;3.50;;;;;;;;;;5015094;28;20180;-81
2023/08/01 02:35:43;;;;;;;5.77;3.97;;;;;;;;;;5021847;28;20195;-81
2023/08/01 02:38:08;;;;;;;7.43;5.10;;;;;;;;;;5031083;28;20270;-81
2023/08/01 02:40:33;;;;;;;6.27;3.73;;;;;;;;;;5021643;28;20206;-81
2023/08/01 02:42:58;;;;;;;5.07;3.83;;;;;;;;;;5020492;28;20187;-81
2023/08/01 02:45:24;;;;;;;4.73;4.20;;;;;;;;;;5019329;28;20260;-81
2023/08/01 02:47:49;;;;;;;5.40;4.00;;;;;;;;;;5022595;28;20178;-81
2023/08/01 02:50:14;;;;;;;4.90;4.00;;;;;;;;;;5018157;28;20207;-81
2023/08/01 02:52:39;;;;;;;4.87;3.67;;;;;;;;;;5022154;28;20199;-80
2023/08/01 02:55:05;;;;;;;7.00;4.30;;;;;;;;;;5013288;28;20218;-81
2023/08/01 02:57:30;;;;;;;4.13;3.73;;;;;;;;;;5012868;28;20293;-81
2023/08/01 02:59:55;;;;;;;5.80;4.00;;;;;;;;;;5017379;28;20178;-81
2023/08/01 03:02:20;;;;;;;4.53;3.90;;;;;;;;;;5022300;28;20357;-81
2023/08/01 03:04:46;;;;;;;7.40;3.97;;;;;;;;;;5015750;28;20226;-80
2023/08/01 03:07:11;;;;;;;5.63;3.60;;;;;;;;;;5016825;28;20290;-80
2023/08/01 03:09:36;;;;;;;5.57;4.03;;;;;;;;;;5011431;28;20188;-80
2023/08/01 03:12:01;;;;;;;4.00;3.60;;;;;;;;;;5016427;28;20248;-80
2023/08/01 03:14:27;;;;;;;4.87;4.23;;;;;;;;;;5023131;28;20221;-80
2023/08/01 03:16:52;;;;;;;5.20;3.63;;;;;;;;;;5010270;28;20189;-80
2023/08/01 03:19:18;;;;;;;4.97;4.13;;;;;;;;;;5018681;28;20176;-80
2023/08/01 03:21:43;;;;;;;6.50;3.67;;;;;;;;;;5016922;28;20190;-80
2023/08/01 03:24:08;;;;;;;4.00;3.60;;;;;;;;;;5017654;28;20179;-78
2023/08/01 03:26:37;;;;;;;4.60;3.43;;;;;;;;;;5010786;28;20231;-81
2023/08/01 03:29:02;;;;;;;4.70;4.00;;;;;;;;;;5015051;28;20235;-81
2023/08/01 03:31:28;;;;;;;3.70;3.13;;;;;;;;;;5011407;28;20192;-81
2023/08/01 03:33:53;;;;;;;6.17;3.27;;;;;;;;;;5014837;28;20234;-81
2023/08/01 03:36:19;;;;;;;4.60;3.10;;;;;;;;;;5027176;28;20182;-81
2023/08/01 03:38:44;;;;;;;4.90;3.60;;;;;;;;;;5021105;28;20179;-81
2023/08/01 03:41:09;;;;;;;4.77;3.27;;;;;;;;;;5014401;28;20203;-81
2023/08/01 03:43:34;;;;;;;4.20;3.17;;;;;;;;;;5023586;28;20171;-81
2023/08/01 03:46:00;;;;;;;3.97;3.30;;;;;;;;;;5019436;28;20183;-81
2023/08/01 03:48:25;;;;;;;4.50;2.97;;;;;;;;;;5026652;28;20274;-82
2023/08/01 03:50:50;;;;;;;6.03;3.40;;;;;;;;;;5020039;28;20190;-83
2023/08/01 03:53:15;;;;;;;3.97;2.93;;;;;;;;;;5014375;28;20199;-82
2023/08/01 03:55:42;;;;;;;5.20;3.27;;;;;;;;;;5018114;28;20267;-82
2023/08/01 03:58:07;;;;;;;5.17;3.23;;;;;;;;;;5021568;28;20186;-82
2023/08/01 04:00:32;;;;;;;5.97;3.50;;;;;;;;;;5022518;28;20171;-83
2023/08/01 04:03:01;;;;;;;3.97;3.40;;;;;;;;;;5020696;28;20230;-82
2023/08/01 04:05:27;;;;;;;4.17;3.47;;;;;;;;;;5021555;28;20272;-82
2023/08/01 04:07:54;;;;;;;4.30;3.17;;;;;;;;;;5018650;28;20271;-82
2023/08/01 04:10:19;;;;;;;5.60;3.30;;;;;;;;;;5015093;28;20253;-83
2023/08/01 04:12:45;;;;;;;5.27;3.20;;;;;;;;;;5017933;28;20288;-82
2023/08/01 04:15:10;;;;;;;4.80;3.17;;;;;;;;;;5014290;28;20209;-81
2023/08/01 04:17:35;;;;;;;4.53;3.53;;;;;;;;;;5014639;28;20186;-81
2023/08/01 04:20:00;;;;;;;4.40;2.87;;;;;;;;;;5021405;28;20265;-82
2023/08/01 04:22:26;;;;;;;6.00;4.83;;;;;;;;;;5017654;28;20176;-81
2023/08/01 04:24:51;;;;;;;7.97;3.90;;;;;;;;;;5022020;28;20225;-81
2023/08/01 04:27:16;;;;;;;3.97;3.23;;;;;;;;;;5016768;28;20270;-81
2023/08/01 04:29:41;;;;;;;4.20;3.40;;;;;;;;;;5025119;28;20191;-81
2023/08/01 04:32:07;;;;;;;4.47;3.20;;;;;;;;;;5015989;28;20242;-81
2023/08/01 04:34:32;;;;;;;4.03;3.37;;;;;;;;;;5016059;28;20264;-80
2023/08/01 04:36:57;;;;;;;5.13;3.00;;;;;;;;;;5020154;28;20175;-81
2023/08/01 04:39:23;;;;;;;4.90;2.90;;;;;;;;;;5014619;28;20183;-81
2023/08/01 04:41:49;;;;;;;4.37;3.50;;;;;;;;;;5037428;28;20186;-81
2023/08/01 04:44:14;;;;;;;2.77;2.57;;;;;;;;;;5015445;28;20202;-81
2023/08/01 04:46:39;;;;;;;3.90;2.57;;;;;;;;;;5018514;28;20267;-80
2023/08/01 04:49:05;;;;;;;2.80;2.43;;;;;;;;;;5019514;28;20222;-80
2023/08/01 04:51:36;;;;;;;3.77;2.80;;;;;;;;;;5022041;28;20277;-80
2023/08/01 04:54:01;;;;;;;2.80;2.47;;;;;;;;;;5023926;28;20295;-80
2023/08/01 04:56:26;;;;;;;8.33;2.90;;;;;;;;;;5026804;28;20206;-80
2023/08/01 04:58:52;;;;;;;5.07;2.80;;;;;;;;;;5017811;28;20178;-80
2023/08/01 05:01:17;;;;;;;4.30;2.83;;;;;;;;;;5015107;28;20188;-80
2023/08/01 05:03:42;;;;;;;4.60;3.27;;;;;;;;;;5016426;28;20234;-80
2023/08/01 05:06:07;;;;;;;3.90;3.30;;;;;;;;;;5018376;28;20182;-80
2023/08/01 05:08:33;;;;;;;6.93;3.80;;;;;;;;;;5022507;28;20185;-80
2023/08/01 05:10:58;;;;;;;5.83;3.50;;;;;;;;;;5013649;28;20275;-80
2023/08/01 05:13:23;;;;;;;9.47;4.27;;;;;;;;;;5017899;28;20213;-80
2023/08/01 05:15:48;;;;;;;6.97;3.83;;;;;;;;;;5016800;28;20205;-80
2023/08/01 05:18:14;;;;;;;4.27;3.87;;;;;;;;;;5018518;28;20179;-80
2023/08/01 05:20:39;;;;;;;7.63;3.70;;;;;;;;;;5018124;28;20179;-80
2023/08/01 05:23:04;;;;;;;6.20;3.80;;;;;;;;;;5016257;28;20180;-80
2023/08/01 05:25:30;;;;;;;4.70;3.90;;;;;;;;;;5011451;28;20187;-80
2023/08/01 05:27:55;;;;;;;5.80;4.30;;;;;;;;;;5015059;28;20182;-80
2023/08/01 05:30:20;;;;;;;5.57;4.00;;;;;;;;;;5027110;28;20189;-80
2023/08/01 05:32:46;;;;;;;6.70;4.13;;;;;;;;;;5027405;28;20289;-80
2023/08/01 05:35:12;;;;;;;4.43;3.70;;;;;;;;;;5015809;28;20532;-80
2023/08/01 05:37:37;;;;;;;3.80;3.47;;;;;;;;;;5020252;28;20192;-80
2023/08/01 05:40:03;;;;;;;5.00;3.93;;;;;;;;;;5017815;28;20171;-80
2023/08/01 05:42:28;;;;;;;4.10;3.67;;;;;;;;;;5027324;28;20304;-80
2023/08/01 05:44:53;;;;;;;5.00;4.43;;;;;;;;;;5021947;28;20280;-80
2023/08/01 05:47:19;;;;;;;5.90;4.27;;;;;;;;;;5025944;28;20228;-80
2023/08/01 05:49:44;;;;;;;5.13;3.73;;;;;;;;;;5018421;28;20186;-80
2023/08/01 05:52:09;;;;;;;5.87;3.90;;;;;;;;;;5013471;28;20179;-81
2023/08/01 05:54:34;;;;;;;6.43;3.37;;;;;;;;;;5023491;28;20207;-80
2023/08/01 05:56:59;;;;;;;4.63;4.17;;;;;;;;;;5014802;28;20194;-80
2023/08/01 05:59:25;;;;;;;6.57;4.10;;;;;;;;;;5016330;28;20178;-81
2023/08/01 06:01:50;;;;;;;5.23;3.97;;;;;;;;;;5022126;28;20286;-81
2023/08/01 06:04:15;;;;;;;7.57;4.37;;;;;;;;;;5016223;28;20257;-83
2023/08/01 06:06:40;;;;;;;5.97;4.10;;;;;;;;;;5020854;28;20205;-84
2023/08/01 06:09:05;;;;;;;4.57;3.70;;;;;;;;;;5028430;28;20178;-82
2023/08/01 06:11:33;;;;;;;4.03;3.50;;;;;;;;;;5023057;28;20186;-83
2023/08/01 06:13:58;;;;;;;4.87;3.90;;;;;;;;;;5024830;28;20203;-84
2023/08/01 06:16:23;;;;;;;5.03;4.37;;;;;;;;;;5019663;28;20203;-82
2023/08/01 06:18:48;;;;;;;6.40;4.30;;;;;;;;;;5033968;28;20219;-83
2023/08/01 06:21:14;;;;;;;5.20;4.07;;;;;;;;;;5014494;28;20246;-82
2023/08/01 06:23:39;;;;;;;5.00;3.77;;;;;;;;;;5028204;28;20186;-83
2023/08/01 06:26:04;;;;;;;5.67;4.43;;;;;;;;;;5013455;28;20182;-83
2023/08/01 06:28:30;;;;;;;7.50;4.63;;;;;;;;;;5025435;28;20240;-84
2023/08/01 06:30:56;;;;;;;4.97;3.13;;;;;;;;;;5013899;28;20181;-84
2023/08/01 06:33:21;;;;;;;4.07;3.67;;;;;;;;;;5019047;28;20184;-83
2023/08/01 06:35:47;;;;;;;5.73;4.37;;;;;;;;;;5015254;28;20203;-83
2023/08/01 06:38:12;;;;;;;4.63;4.03;;;;;;;;;;5019892;28;20177;-83
2023/08/01 06:40:37;;;;;;;5.77;4.17;;;;;;;;;;5019931;28;20184;-83
2023/08/01 06:43:02;;;;;;;5.97;4.20;;;;;;;;;;5028256;28;20178;-83
2023/08/01 06:45:27;;;;;;;4.07;3.67;;;;;;;;;;5029020;28;20236;-83
2023/08/01 06:47:53;;;;;;;4.60;3.73;;;;;;;;;;5012675;28;20189;-82
2023/08/01 06:50:18;;;;;;;5.73;4.30;;;;;;;;;;5024845;28;20173;-82
2023/08/01 06:52:43;;;;;;;4.70;3.70;;;;;;;;;;5013248;28;20232;-82
2023/08/01 06:55:08;;;;;;;4.87;4.03;;;;;;;;;;5016986;28;20220;-82
2023/08/01 06:57:35;;;;;;;5.53;4.00;;;;;;;;;;5023419;28;20192;-83
2023/08/01 07:00:00;;;;;;;5.73;4.93;;;;;;;;;;5014509;28;20201;-82
2023/08/01 07:02:25;;;;;;;6.10;4.73;;;;;;;;;;5022459;28;20181;-83
2023/08/01 07:04:50;;;;;;;4.50;3.87;;;;;;;;;;5017556;28;20236;-83
2023/08/01 07:07:16;;;;;;;4.60;3.70;;;;;;;;;;5016136;28;20305;-79
2023/08/01 07:09:41;;;;;;;6.67;4.40;;;;;;;;;;5011359;28;20245;-82
2023/08/01 07:12:06;;;;;;;3.83;3.23;;;;;;;;;;5014291;28;20178;-84
2023/08/01 07:14:31;;;;;;;4.67;3.70;;;;;;;;;;5022218;28;20499;-84
2023/08/01 07:16:57;;;;;;;4.60;3.83;;;;;;;;;;5029538;28;20181;-84
2023/08/01 07:19:22;;;;;;;4.03;3.20;;;;;;;;;;5022639;28;20187;-83
2023/08/01 07:21:48;;;;;;;4.93;3.27;;;;;;;;;;5021513;28;20176;-83
2023/08/01 07:24:14;;;;;;;3.37;2.70;;;;;;;;;;5016772;28;20196;-84
2023/08/01 07:26:40;;;;;;;3.00;2.77;;;;;;;;;;5024457;28;20210;-84
2023/08/01 07:29:05;;;;;;;3.93;2.63;;;;;;;;;;5027800;28;20190;-82
2023/08/01 07:31:31;;;;;;;2.93;2.70;;;;;;;;;;5026939;28;20272;-83
2023/08/01 07:33:56;;;;;;;4.47;2.73;;;;;;;;;;5028947;28;20210;-83
2023/08/01 07:36:21;;;;;;;2.90;2.50;;;;;;;;;;5025395;28;20455;-83
2023/08/01 07:38:46;;;;;;;2.83;2.53;;;;;;;;;;5021109;28;20251;-83
2023/08/01 07:41:12;;;;;;;2.90;2.20;;;;;;;;;;5028605;28;20208;-83
2023/08/01 07:43:37;;;;;;;3.93;2.47;;;;;;;;;;5024082;28;20282;-83
2023/08/01 07:46:02;;;;;;;2.23;2.03;;;;;;;;;;5013756;28;20187;-82
2023/08/01 07:48:28;;;;;;;3.23;2.07;;;;;;;;;;5019818;28;20174;-82
2023/08/01 07:50:53;;;;;;;3.00;1.70;;;;;;;;;;5019232;28;20191;-84
2023/08/01 07:53:19;;;;;;;3.07;2.07;;;;;;;;;;5027479;28;20191;-84
2023/08/01 07:55:44;;;;;;;2.13;1.73;;;;;;;;;;5020646;28;20295;-83
2023/08/01 07:58:09;;;;;;;3.23;2.00;;;;;;;;;;5025285;28;20189;-83
2023/08/01 08:00:35;;;;;;;1.90;1.63;;;;;;;;;;5014758;28;20229;-83
2023/08/01 08:03:00;;;;;;;3.40;2.07;;;;;;;;;;5025224;28;20185;-83
2023/08/01 08:05:25;;;;;;;1.30;1.20;;;;;;;;;;5016697;28;20182;-83
2023/08/01 08:07:50;;;;;;;1.60;1.50;;;;;;;;;;5022691;28;20179;-83
2023/08/01 08:10:16;;;;;;;1.50;1.20;;;;;;;;;;5026172;28;20171;-83
2023/08/01 08:12:41;;;;;;;1.83;1.20;;;;;;;;;;5016936;28;20193;-83
2023/08/01 08:15:06;;;;;;;1.33;1.20;;;;;;;;;;5024383;28;20213;-84
2023/08/01 08:17:32;;;;;;;2.20;1.20;;;;;;;;;;5023334;28;20188;-84
2023/08/01 08:19:57;;;;;;;2.33;2.10;;;;;;;;;;5017189;28;20180;-83
2023/08/01 08:22:22;;;;;;;1.27;1.17;;;;;;;;;;5015996;28;20180;-82
2023/08/01 08:24:48;;;;;;;2.10;1.00;;;;;;;;;;5018726;28;20240;-83
2023/08/01 08:27:13;;;;;;;1.10;1.00;;;;;;;;;;5020456;28;20175;-83
2023/08/01 08:29:38;;;;;;;0.80;0.80;;;;;;;;;;5014456;28;20211;-83
2023/08/01 08:32:04;;;;;;;0.80;0.80;;;;;;;;;;5022240;28;20186;-83
2023/08/01 08:34:29;;;;;;;0.80;0.80;;;;;;;;;;5019184;28;20234;-83
2023/08/01 08:36:54;;;;;;;0.70;0.70;;;;;;;;;;5018548;28;20174;-82
2023/08/01 08:39:19;;;;;;;0.97;0.70;;;;;;;;;;5026152;28;20264;-82
2023/08/01 08:41:47;;;;;;;0.80;0.80;;;;;;;;;;5029839;28;20210;-82
2023/08/01 08:44:14;;;;;;;0.50;0.50;;;;;;;;;;5025271;28;20252;-82
2023/08/01 08:46:42;;;;;;;0.60;0.57;;;;;;;;;;5021922;28;20190;-82
2023/08/01 08:49:08;;;;;;;0.50;0.50;;;;;;;;;;5015192;28;20213;-83
2023/08/01 08:51:34;;;;;;;0.40;0.40;;;;;;;;;;5027494;28;20193;-82
2023/08/01 08:54:00;;;;;;;0.40;0.40;;;;;;;;;;5014459;28;20216;-82
2023/08/01 08:56:26;;;;;;;1.60;0.50;;;;;;;;;;5015673;28;20176;-83
2023/08/01 08:58:52;;;;;;;0.40;0.40;;;;;;;;;;5012677;28;20183;-82
2023/08/01 09:01:17;;;;;;;0.60;0.60;;;;;;;;;;5018384;28;20221;-83
2023/08/01 09:03:44;;;;;;;0.77;0.77;;;;;;;;;;5025889;28;20245;-83
2023/08/01 09:06:12;;;;;;;1.07;0.60;;;;;;;;;;5023220;28;20189;-82
2023/08/01 09:08:39;;;;;;;0.60;0.60;;;;;;;;;;5018865;28;20218;-82
2023/08/01 09:11:04;;;;;;;0.67;0.60;;;;;;;;;;5019361;28;20171;-82
2023/08/01 09:13:30;;;;;;;0.40;0.40;;;;;;;;;;5015753;28;20182;-82
2023/08/01 09:15:56;;;;;;;0.93;0.93;;;;;;;;;;5019337;28;20216;-82
2023/08/01 09:18:21;;;;;;;0.60;0.60;;;;;;;;;;5022187;28;20182;-82
2023/08/01 09:20:47;;;;;;;1.27;0.70;;;;;;;;;;5022112;28;20186;-82
2023/08/01 09:23:13;;;;;;;0.30;0.30;;;;;;;;;;5024298;28;20178;-82
2023/08/01 09:25:38;;;;;;;0.40;0.40;;;;;;;;;;5021736;28;20283;-82
2023/08/01 09:28:14;;;;;;;0.50;0.50;;;;;;;;;;5013746;28;20272;-81
2023/08/01 09:30:47;;;;;;;0.40;0.40;;;;;;;;;;5015258;28;20238;-81
2023/08/01 09:33:12;;;;;;;0.40;0.40;;;;;;;;;;5027957;28;20175;-82
2023/08/01 09:35:40;;;;;;;0.40;0.40;;;;;;;;;;5021260;28;20213;-83
2023/08/01 09:38:08;;;;;;;0.47;0.47;;;;;;;;;;5014089;28;20180;-83
2023/08/01 09:40:37;;;;;;;0.50;0.50;;;;;;;;;;5018446;28;20434;-82
2023/08/01 09:43:03;;;;;;;0.30;0.30;;;;;;;;;;5023089;28;20178;-82
2023/08/01 09:45:28;;;;;;;0.50;0.27;;;;;;;;;;5020564;28;20210;-82
2023/08/01 09:47:53;;;;;;;0.53;0.53;;;;;;;;;;5026703;28;20178;-82
2023/08/01 09:50:22;;;;;;;0.30;0.30;;;;;;;;;;5021106;28;20270;-82
2023/08/01 09:52:53;;;;;;;0.70;0.50;;;;;;;;;;5023324;28;20199;-82
2023/08/01 09:55:26;;;;;;;0.60;0.60;;;;;;;;;;5019235;28;20213;-74
2023/08/01 09:57:53;;;;;;;0.70;0.70;;;;;;;;;;5018127;28;20214;-74
2023/08/01 10:00:18;;;;;;;1.10;0.90;;;;;;;;;;5023278;28;20184;-74
2023/08/01 10:02:45;;;;;;;0.90;0.90;;;;;;;;;;5018443;28;20244;-74
2023/08/01 10:05:12;;;;;;;1.10;1.00;;;;;;;;;;5027597;28;20234;-73
2023/08/01 10:07:38;;;;;;;0.80;0.80;;;;;;;;;;5015239;28;20185;-74
2023/08/01 10:10:04;;;;;;;0.83;0.83;;;;;;;;;;5013524;28;20191;-74
2023/08/01 10:12:29;;;;;;;1.63;1.20;;;;;;;;;;5023894;28;20187;-74
2023/08/01 10:14:55;;;;;;;1.13;1.00;;;;;;;;;;5020291;28;20201;-74
2023/08/01 10:17:21;;;;;;;0.90;0.90;;;;;;;;;;5016140;28;20174;-74
2023/08/01 10:19:48;;;;;;;1.77;1.23;;;;;;;;;;5019019;28;20175;-74
2023/08/01 10:22:14;;;;;;;1.47;1.37;;;;;;;;;;5015262;28;20228;-74
2023/08/01 10:24:39;;;;;;;0.90;0.90;;;;;;;;;;5023117;28;20277;-74
2023/08/01 10:27:12;;;;;;;1.60;1.30;;;;;;;;;;5025300;28;20189;-74
2023/08/01 10:29:37;;;;;;;1.33;1.23;;;;;;;;;;5027409;28;20186;-74
2023/08/01 10:32:03;;;;;;;1.30;1.20;;;;;;;;;;5018522;28;20208;-74
2023/08/01 10:34:28;;;;;;;2.17;1.20;;;;;;;;;;5024422;28;20201;-74
2023/08/01 10:36:57;;;;;;;1.30;1.20;;;;;;;;;;5040353;28;20242;-74
2023/08/01 10:39:23;;;;;;;3.43;1.20;;;;;;;;;;5026701;28;20265;-74
2023/08/01 10:41:56;;;;;;;1.40;1.30;;;;;;;;;;5020820;28;20236;-74
2023/08/01 10:44:22;;;;;;;1.53;1.30;;;;;;;;;;5021893;28;20221;-74
2023/08/01 10:46:56;;;;;;;1.90;1.50;;;;;;;;;;5021122;28;20181;-74
2023/08/01 10:49:33;;;;;;;1.67;1.57;;;;;;;;;;5014185;28;20171;-74
2023/08/01 10:51:58;;;;;;;1.60;1.50;;;;;;;;;;5019990;28;20177;-74
2023/08/01 10:54:24;;;;;;;2.00;1.60;;;;;;;;;;5022691;28;20294;-74
2023/08/01 10:56:51;;;;;;;1.50;1.40;;;;;;;;;;5027396;28;20176;-74
2023/08/01 10:59:16;;;;;;;2.07;1.60;;;;;;;;;;5025237;28;20176;-74
2023/08/01 11:01:49;;;;;;;1.57;1.33;;;;;;;;;;5026158;28;20243;-74
2023/08/01 11:04:15;;;;;;;1.43;1.33;;;;;;;;;;5021157;28;20223;-74
2023/08/01 11:06:44;;;;;;;1.70;1.60;;;;;;;;;;5024762;28;20271;-74
2023/08/01 11:09:19;;;;;;;1.80;1.70;;;;;;;;;;5023887;28;20212;-74
2023/08/01 11:11:45;;;;;;;1.47;1.37;;;;;;;;;;5019421;28;20184;-74
2023/08/01 11:14:11;;;;;;;2.70;1.87;;;;;;;;;;5018781;28;20249;-74
2023/08/01 11:16:37;;;;;;;2.77;1.67;;;;;;;;;;5023883;28;20178;-74
2023/08/01 11:19:02;;;;;;;1.80;1.70;;;;;;;;;;5026121;28;20185;-74
2023/08/01 11:21:27;;;;;;;3.10;2.07;;;;;;;;;;5028232;28;20181;-74
2023/08/01 11:23:53;;;;;;;2.07;1.60;;;;;;;;;;5017013;28;20185;-74
2023/08/01 11:26:18;;;;;;;1.60;1.50;;;;;;;;;;5018930;28;20177;-74
2023/08/01 11:28:44;;;;;;;3.50;1.83;;;;;;;;;;5013719;28;20266;-74
2023/08/01 11:31:12;;;;;;;4.87;1.83;;;;;;;;;;5018185;28;20187;-74
2023/08/01 11:33:38;;;;;;;3.00;1.97;;;;;;;;;;5023805;28;20196;-74
2023/08/01 11:36:03;;;;;;;1.93;1.57;;;;;;;;;;5022420;28;20248;-74
2023/08/01 11:38:29;;;;;;;1.47;1.23;;;;;;;;;;5014469;28;20185;-74
2023/08/01 11:40:56;;;;;;;1.70;1.50;;;;;;;;;;5015858;28;20185;-74
2023/08/01 11:43:21;;;;;;;2.00;1.70;;;;;;;;;;5018016;28;20182;-74
2023/08/01 11:45:50;;;;;;;2.87;1.83;;;;;;;;;;5017635;28;20185;-74
2023/08/01 11:48:16;;;;;;;1.90;1.67;;;;;;;;;;5015136;28;20245;-74
2023/08/01 11:50:47;;;;;;;1.63;1.47;;;;;;;;;;5019375;28;20197;-74
2023/08/01 11:53:19;;;;;;;1.67;1.57;;;;;;;;;;5018127;28;20290;-74
2023/08/01 11:55:45;;;;;;;1.93;1.50;;;;;;;;;;5027969;28;20206;-74
2023/08/01 11:58:10;;;;;;;3.00;1.73;;;;;;;;;;5019739;28;20178;-74
2023/08/01 12:00:35;;;;;;;1.77;1.37;;;;;;;;;;5021143;28;20192;-74
2023/08/01 12:03:12;;;;;;;2.37;1.70;;;;;;;;;;5018513;28;20192;-75
2023/08/01 12:05:41;;;;;;;2.60;1.83;;;;;;;;;;5019259;28;20215;-74
2023/08/01 12:08:10;;;;;;;1.97;1.63;;;;;;;;;;5018722;28;20179;-73
2023/08/01 12:10:40;;;;;;;2.20;1.63;;;;;;;;;;5024087;28;20185;-74
2023/08/01 12:13:05;;;;;;;2.23;1.80;;;;;;;;;;5015744;28;20174;-73
2023/08/01 12:15:30;;;;;;;2.20;1.87;;;;;;;;;;5021253;28;20242;-74
2023/08/01 12:17:56;;;;;;;1.50;1.40;;;;;;;;;;5017169;28;20176;-73
2023/08/01 12:20:21;;;;;;;2.37;1.60;;;;;;;;;;5024704;28;20259;-73
2023/08/01 12:22:47;;;;;;;1.90;1.70;;;;;;;;;;5019692;28;20190;-73
2023/08/01 12:25:12;;;;;;;2.03;1.70;;;;;;;;;;5025777;28;20179;-73
2023/08/01 12:27:37;;;;;;;1.87;1.60;;;;;;;;;;5023318;28;20294;-73
2023/08/01 12:30:03;;;;;;;2.70;1.53;;;;;;;;;;5037462;28;20184;-73
2023/08/01 12:32:28;;;;;;;2.90;1.60;;;;;;;;;;5025275;28;20224;-73
2023/08/01 12:34:53;;;;;;;2.30;1.67;;;;;;;;;;5013784;28;20210;-73
2023/08/01 12:37:18;;;;;;;2.27;1.70;;;;;;;;;;5025618;28;20206;-74
2023/08/01 12:39:43;;;;;;;3.43;1.70;;;;;;;;;;5022516;28;20179;-73
2023/08/01 12:42:09;;;;;;;1.67;1.10;;;;;;;;;;5018641;28;20187;-73
2023/08/01 12:44:34;;;;;;;2.00;1.80;;;;;;;;;;5019653;28;20188;-73
2023/08/01 12:46:59;;;;;;;2.03;1.70;;;;;;;;;;5024335;28;20185;-73
2023/08/01 12:49:24;;;;;;;1.67;1.47;;;;;;;;;;5019316;28;20175;-73
2023/08/01 12:51:50;;;;;;;1.90;1.60;;;;;;;;;;5025671;28;20180;-73
2023/08/01 12:54:15;;;;;;;3.07;1.97;;;;;;;;;;5023055;28;20301;-73
2023/08/01 12:56:40;;;;;;;2.67;1.50;;;;;;;;;;5017586;28;20194;-73
2023/08/01 12:59:05;;;;;;;1.70;1.60;;;;;;;;;;5021870;28;20263;-74
2023/08/01 13:01:30;;;;;;;2.43;1.83;;;;;;;;;;5021522;28;20194;-74
2023/08/01 13:03:56;;;;;;;2.50;1.70;;;;;;;;;;5023488;28;20255;-73
2023/08/01 13:06:21;;;;;;;2.63;2.30;;;;;;;;;;5021025;28;20194;-74
2023/08/01 13:08:46;;;;;;;1.70;1.60;;;;;;;;;;5022211;28;20213;-74
2023/08/01 13:11:15;;;;;;;2.17;1.97;;;;;;;;;;5015216;28;20328;-74
2023/08/01 13:13:41;;;;;;;2.30;1.67;;;;;;;;;;5018177;28;20206;-73
2023/08/01 13:16:06;;;;;;;2.57;1.80;;;;;;;;;;5012605;28;20208;-74
2023/08/01 13:18:31;;;;;;;2.03;1.80;;;;;;;;;;5017889;28;20183;-74
2023/08/01 13:20:57;;;;;;;2.90;1.80;;;;;;;;;;5017748;28;20183;-74
2023/08/01 13:23:22;;;;;;;3.93;1.60;;;;;;;;;;5015503;28;20311;-74
2023/08/01 13:25:48;;;;;;;2.30;1.90;;;;;;;;;;5023354;28;20192;-73
2023/08/01 13:28:13;;;;;;;2.53;1.80;;;;;;;;;;5015610;28;20268;-73
2023/08/01 13:30:39;;;;;;;1.87;1.73;;;;;;;;;;5021212;28;20197;-74
2023/08/01 13:33:04;;;;;;;2.43;1.60;;;;;;;;;;5019691;28;20183;-74
2023/08/01 13:35:29;;;;;;;3.70;1.93;;;;;;;;;;5020957;28;20260;-74
2023/08/01 13:37:54;;;;;;;2.13;1.93;;;;;;;;;;5012956;28;20180;-74
2023/08/01 13:40:19;;;;;;;2.10;1.90;;;;;;;;;;5022811;28;20234;-73
2023/08/01 13:42:45;;;;;;;2.67;1.80;;;;;;;;;;5016111;28;20265;-73
2023/08/01 13:45:10;;;;;;;3.07;2.17;;;;;;;;;;5016648;28;20187;-74
2023/08/01 13:47:35;;;;;;;2.33;1.80;;;;;;;;;;5025806;28;20221;-74
2023/08/01 13:50:01;;;;;;;2.67;1.90;;;;;;;;;;5037361;28;20187;-74
2023/08/01 13:52:26;;;;;;;3.00;1.90;;;;;;;;;;5019740;28;20195;-73
2023/08/01 13:54:51;;;;;;;4.10;1.70;;;;;;;;;;5021331;28;20211;-73
2023/08/01 13:57:16;;;;;;;3.50;1.60;;;;;;;;;;5017484;28;20195;-73
2023/08/01 13:59:41;;;;;;;1.90;1.70;;;;;;;;;;5019607;28;20183;-73
2023/08/01 14:02:07;;;;;;;2.37;1.70;;;;;;;;;;5017634;28;20180;-73
2023/08/01 14:04:32;;;;;;;3.10;1.80;;;;;;;;;;5020596;28;20336;-74
2023/08/01 14:06:57;;;;;;;1.60;1.30;;;;;;;;;;5011792;28;20186;-74
2023/08/01 14:09:22;;;;;;;2.27;1.70;;;;;;;;;;5024541;28;20169;-73
2023/08/01 14:11:47;;;;;;;1.63;1.50;;;;;;;;;;5017194;28;20187;-73
2023/08/01 14:14:13;;;;;;;4.17;2.20;;;;;;;;;;5020592;28;20202;-74
2023/08/01 14:16:38;;;;;;;2.47;1.60;;;;;;;;;;5020399;28;20312;-74
2023/08/01 14:19:03;;;;;;;2.87;1.70;;;;;;;;;;5017111;28;20319;-74
2023/08/01 14:21:29;;;;;;;2.57;1.60;;;;;;;;;;5011642;28;20173;-73
2023/08/01 14:23:54;;;;;;;2.47;1.80;;;;;;;;;;5016735;28;20240;-74
2023/08/01 14:26:19;;;;;;;1.60;1.50;;;;;;;;;;5013347;28;20201;-74
2023/08/01 14:28:46;;;;;;;2.37;1.77;;;;;;;;;;5011748;28;20173;-74
2023/08/01 14:31:11;;;;;;;2.83;1.60;;;;;;;;;;5018709;28;20275;-74
2023/08/01 14:33:36;;;;;;;1.90;1.73;;;;;;;;;;5022565;28;20235;-74